Johnson Village, Colorado
Current Conditions -  °F | °C
As of 9:34 AM on Monday 24 Nov 2014 (Local Time) from K7BM Reporting Station
Overcast Overcast  
Wind Chill:   Ceiling: 2100
Heat Index: 19°   Visibility: 10mi
Dew Point:   Wind: 13mph
Humidity: 54%   Direction: 320°NW
Pressure: 29.95"   Gusts: 29mph
Location:  38.8913°N, 106.224°W
Report Text: K7BM 241634Z AUTO 32011G25KT 290V010 10SM OVC021 M07/M15 A2995 RMK AO2
Loading
Personal Weather Stations






























Interactive Weather Map New forecast layout! Learn more

10-Day Weather Forecast

Advertisements
Track Severe Weather on mobile